Time;durP1;ratioP1;P1;durP2;ratioP2;P2;SDS_P1;SDS_P2;PMS_P1;PMS_P2;Temp;Humidity;BMP_temperature;BMP_pressure;BME280_temperature;BME280_humidity;BME280_pressure;Samples;Min_cycle;Max_cycle;Signal;HPM_P1;HPM_P2
2021/07/31 00:01:34;;;;;;;4.05;2.35;;;;;;;;;;5094227;28;20431;-69
2021/07/31 00:04:01;;;;;;;4.63;2.90;;;;;;;;;;5093807;28;20020;-68
2021/07/31 00:06:27;;;;;;;5.35;2.67;;;;;;;;;;5093832;28;20483;-68
2021/07/31 00:08:53;;;;;;;3.60;2.58;;;;;;;;;;5094213;28;20451;-69
2021/07/31 00:11:19;;;;;;;3.85;2.50;;;;;;;;;;5093863;28;20032;-69
2021/07/31 00:13:46;;;;;;;5.28;2.90;;;;;;;;;;5092749;28;20426;-68
2021/07/31 00:16:12;;;;;;;2.88;2.35;;;;;;;;;;5094011;28;20024;-68
2021/07/31 00:18:38;;;;;;;5.07;2.60;;;;;;;;;;5094428;28;20059;-69
2021/07/31 00:21:04;;;;;;;4.53;3.13;;;;;;;;;;5093761;28;20090;-67
2021/07/31 00:23:30;;;;;;;4.72;2.75;;;;;;;;;;5093792;28;20074;-68
2021/07/31 00:25:56;;;;;;;5.05;2.97;;;;;;;;;;5094054;28;20019;-68
2021/07/31 00:28:28;;;;;;;4.75;2.50;;;;;;;;;;5107359;28;20016;-68
2021/07/31 00:30:54;;;;;;;2.90;2.38;;;;;;;;;;5113955;28;20069;-69
2021/07/31 00:33:20;;;;;;;2.85;2.28;;;;;;;;;;5113942;28;20035;-68
2021/07/31 00:35:46;;;;;;;4.03;2.60;;;;;;;;;;5113426;28;20099;-69
2021/07/31 00:38:12;;;;;;;4.00;2.65;;;;;;;;;;5113456;28;20081;-68
2021/07/31 00:40:39;;;;;;;4.22;2.70;;;;;;;;;;5114227;28;20031;-68
2021/07/31 00:43:06;;;;;;;4.28;2.55;;;;;;;;;;5113538;28;20020;-67
2021/07/31 00:45:32;;;;;;;3.40;2.55;;;;;;;;;;5114161;28;20595;-68
2021/07/31 00:47:58;;;;;;;3.53;2.70;;;;;;;;;;5113725;28;20432;-68
2021/07/31 00:50:25;;;;;;;6.05;2.90;;;;;;;;;;5113804;28;20377;-66
2021/07/31 00:52:51;;;;;;;4.88;2.50;;;;;;;;;;5113375;28;20054;-68
2021/07/31 00:55:18;;;;;;;5.10;2.75;;;;;;;;;;5113781;28;20042;-67
2021/07/31 00:57:46;;;;;;;3.45;2.95;;;;;;;;;;5113483;28;20027;-68
2021/07/31 01:00:12;;;;;;;6.07;3.17;;;;;;;;;;5113359;28;20041;-68
2021/07/31 01:02:38;;;;;;;5.72;2.60;;;;;;;;;;5111651;28;20366;-68
2021/07/31 01:05:05;;;;;;;4.85;2.67;;;;;;;;;;5093210;28;20024;-68
2021/07/31 01:07:32;;;;;;;4.68;2.80;;;;;;;;;;5093168;28;20034;-67
2021/07/31 01:09:58;;;;;;;6.15;2.53;;;;;;;;;;5093391;28;20024;-68
2021/07/31 01:12:24;;;;;;;4.55;2.63;;;;;;;;;;5093688;28;20099;-68
2021/07/31 01:14:51;;;;;;;4.20;2.55;;;;;;;;;;5093525;28;20058;-69
2021/07/31 01:17:17;;;;;;;4.38;3.00;;;;;;;;;;5093107;28;20036;-68
2021/07/31 01:19:43;;;;;;;6.22;2.60;;;;;;;;;;5092875;28;20170;-68
2021/07/31 01:22:12;;;;;;;2.95;2.65;;;;;;;;;;5093589;28;20069;-70
2021/07/31 01:24:38;;;;;;;5.57;2.58;;;;;;;;;;5092456;28;20035;-69
2021/07/31 01:27:04;;;;;;;2.85;2.45;;;;;;;;;;5095600;28;20089;-72
2021/07/31 01:29:31;;;;;;;4.10;3.15;;;;;;;;;;5113587;28;20020;-68
2021/07/31 01:31:57;;;;;;;4.03;2.63;;;;;;;;;;5113895;28;20051;-68
2021/07/31 01:34:23;;;;;;;5.15;2.53;;;;;;;;;;5113046;28;20487;-69
2021/07/31 01:36:49;;;;;;;3.15;2.70;;;;;;;;;;5113495;28;20031;-68
2021/07/31 01:39:16;;;;;;;3.47;2.40;;;;;;;;;;5112137;28;20032;-68
2021/07/31 01:41:42;;;;;;;4.03;2.10;;;;;;;;;;5113018;28;20084;-68
2021/07/31 01:44:08;;;;;;;5.38;3.00;;;;;;;;;;5113004;28;20020;-67
2021/07/31 01:46:34;;;;;;;4.20;2.30;;;;;;;;;;5108106;28;20381;-68
2021/07/31 01:49:00;;;;;;;2.90;2.60;;;;;;;;;;5093342;28;20077;-68
2021/07/31 01:51:27;;;;;;;3.88;2.30;;;;;;;;;;5092766;28;20055;-68
2021/07/31 01:53:53;;;;;;;2.85;2.10;;;;;;;;;;5091841;28;20133;-68
2021/07/31 01:56:19;;;;;;;4.55;2.53;;;;;;;;;;5092683;28;20024;-68
2021/07/31 01:58:45;;;;;;;5.90;2.25;;;;;;;;;;5091792;28;20048;-68
2021/07/31 02:01:11;;;;;;;3.00;2.70;;;;;;;;;;5092686;28;20448;-68
2021/07/31 02:03:37;;;;;;;2.95;2.03;;;;;;;;;;5093221;28;20092;-68
2021/07/31 02:06:03;;;;;;;4.30;2.30;;;;;;;;;;5097352;28;20072;-68
2021/07/31 02:08:29;;;;;;;4.60;2.45;;;;;;;;;;5113224;28;20020;-68
2021/07/31 02:10:56;;;;;;;5.75;2.50;;;;;;;;;;5112785;28;20020;-69
2021/07/31 02:13:22;;;;;;;3.90;2.22;;;;;;;;;;5113371;28;20024;-69
2021/07/31 02:15:49;;;;;;;4.28;2.40;;;;;;;;;;5113771;28;20047;-69
2021/07/31 02:18:15;;;;;;;6.30;3.88;;;;;;;;;;5112717;28;20480;-67
2021/07/31 02:20:41;;;;;;;2.63;2.00;;;;;;;;;;5112421;28;20026;-67
2021/07/31 02:23:07;;;;;;;5.07;2.40;;;;;;;;;;5114478;28;20050;-68
2021/07/31 02:25:34;;;;;;;4.75;2.15;;;;;;;;;;5114394;28;20020;-67
2021/07/31 02:28:00;;;;;;;7.03;2.08;;;;;;;;;;5113273;28;20099;-67
2021/07/31 02:30:26;;;;;;;9.02;3.53;;;;;;;;;;5112592;28;20023;-67
2021/07/31 02:32:52;;;;;;;3.05;2.03;;;;;;;;;;5113968;28;20023;-70
2021/07/31 02:35:18;;;;;;;4.57;2.20;;;;;;;;;;5114445;28;20028;-68
2021/07/31 02:37:45;;;;;;;3.83;2.30;;;;;;;;;;5116332;28;20107;-68
2021/07/31 02:40:11;;;;;;;3.05;2.03;;;;;;;;;;5116273;28;20102;-68
2021/07/31 02:42:37;;;;;;;3.00;2.30;;;;;;;;;;5116199;28;20083;-67
2021/07/31 02:45:06;;;;;;;4.75;2.30;;;;;;;;;;5116284;28;20038;-67
2021/07/31 02:47:32;;;;;;;4.10;2.20;;;;;;;;;;5116615;28;20023;-68
2021/07/31 02:49:59;;;;;;;2.47;2.03;;;;;;;;;;5120208;28;20024;-67
2021/07/31 02:52:25;;;;;;;3.63;2.20;;;;;;;;;;5127852;28;20047;-68
2021/07/31 02:54:51;;;;;;;10.70;2.72;;;;;;;;;;5123567;28;20023;-68
2021/07/31 02:57:17;;;;;;;2.83;2.10;;;;;;;;;;5115819;28;20028;-68
2021/07/31 02:59:43;;;;;;;5.85;2.53;;;;;;;;;;5115381;28;20039;-68
2021/07/31 03:02:09;;;;;;;6.53;2.40;;;;;;;;;;5115752;28;20085;-68
2021/07/31 03:04:35;;;;;;;3.35;2.47;;;;;;;;;;5116664;28;20039;-68
2021/07/31 03:07:01;;;;;;;4.22;2.22;;;;;;;;;;5117775;28;20031;-68
2021/07/31 03:09:27;;;;;;;4.32;2.70;;;;;;;;;;5116860;28;20033;-69
2021/07/31 03:11:53;;;;;;;3.72;2.33;;;;;;;;;;5116908;28;20386;-68
2021/07/31 03:14:20;;;;;;;3.75;2.65;;;;;;;;;;5115419;28;20027;-68
2021/07/31 03:16:46;;;;;;;5.70;3.15;;;;;;;;;;5114574;28;20579;-68
2021/07/31 03:19:12;;;;;;;4.65;2.65;;;;;;;;;;5116131;28;20114;-68
2021/07/31 03:21:38;;;;;;;7.25;2.80;;;;;;;;;;5116878;28;20053;-68
2021/07/31 03:24:04;;;;;;;5.03;2.72;;;;;;;;;;5115433;28;20019;-69
2021/07/31 03:26:30;;;;;;;5.32;3.22;;;;;;;;;;5116100;28;20031;-68
2021/07/31 03:28:56;;;;;;;3.72;2.22;;;;;;;;;;5115456;28;20031;-69
2021/07/31 03:31:23;;;;;;;5.50;2.55;;;;;;;;;;5115339;28;20392;-68
2021/07/31 03:33:50;;;;;;;6.22;2.70;;;;;;;;;;5115447;28;20024;-69
2021/07/31 03:36:16;;;;;;;5.25;2.70;;;;;;;;;;5115438;28;20035;-68
2021/07/31 03:38:42;;;;;;;4.90;2.95;;;;;;;;;;5115644;28;20030;-68
2021/07/31 03:41:08;;;;;;;5.63;2.58;;;;;;;;;;5115373;28;20525;-67
2021/07/31 03:43:34;;;;;;;4.55;3.03;;;;;;;;;;5116146;28;20439;-67
2021/07/31 03:46:07;;;;;;;5.10;2.60;;;;;;;;;;5115415;28;20466;-67
2021/07/31 03:48:33;;;;;;;5.40;2.60;;;;;;;;;;5115362;28;20026;-68
2021/07/31 03:50:59;;;;;;;5.50;3.00;;;;;;;;;;5115764;28;20084;-68
2021/07/31 03:53:25;;;;;;;4.82;2.90;;;;;;;;;;5115024;28;20015;-68
2021/07/31 03:55:51;;;;;;;3.58;2.72;;;;;;;;;;5114812;28;20023;-68
2021/07/31 03:58:17;;;;;;;6.60;3.00;;;;;;;;;;5115221;28;20045;-68
2021/07/31 04:00:44;;;;;;;7.57;2.85;;;;;;;;;;5114580;28;20401;-69
2021/07/31 04:03:10;;;;;;;9.02;3.03;;;;;;;;;;5115020;28;20020;-67
2021/07/31 04:05:39;;;;;;;5.13;3.03;;;;;;;;;;5116858;28;20020;-69
2021/07/31 04:08:06;;;;;;;4.93;3.05;;;;;;;;;;5115258;28;20016;-67
2021/07/31 04:10:32;;;;;;;5.05;2.72;;;;;;;;;;5115203;28;20046;-67
2021/07/31 04:12:58;;;;;;;5.63;4.15;;;;;;;;;;5114581;28;20035;-65
2021/07/31 04:15:24;;;;;;;3.67;2.70;;;;;;;;;;5115593;28;20034;-69
2021/07/31 04:17:51;;;;;;;6.50;2.88;;;;;;;;;;5115285;28;20031;-66
2021/07/31 04:20:17;;;;;;;8.63;2.85;;;;;;;;;;5114774;28;20024;-67
2021/07/31 04:22:43;;;;;;;8.55;2.80;;;;;;;;;;5114044;28;20478;-67
2021/07/31 04:25:09;;;;;;;5.95;3.45;;;;;;;;;;5116105;28;20028;-66
2021/07/31 04:27:35;;;;;;;4.05;2.78;;;;;;;;;;5114368;28;20087;-67
2021/07/31 04:30:02;;;;;;;5.45;2.90;;;;;;;;;;5116337;28;20110;-66
2021/07/31 04:32:28;;;;;;;5.47;2.85;;;;;;;;;;5114124;28;20494;-67
2021/07/31 04:34:54;;;;;;;6.00;3.05;;;;;;;;;;5114220;28;20024;-68
2021/07/31 04:37:20;;;;;;;6.82;2.78;;;;;;;;;;5114779;28;20058;-68
2021/07/31 04:39:46;;;;;;;9.00;3.00;;;;;;;;;;5114588;28;20098;-67
2021/07/31 04:42:15;;;;;;;3.70;2.88;;;;;;;;;;5115000;28;20028;-65
2021/07/31 04:44:41;;;;;;;5.70;2.78;;;;;;;;;;5114386;28;20020;-67
2021/07/31 04:47:08;;;;;;;7.05;2.67;;;;;;;;;;5109577;28;20031;-67
2021/07/31 04:49:39;;;;;;;5.93;3.25;;;;;;;;;;5103480;28;20065;-67
2021/07/31 04:52:09;;;;;;;5.78;3.15;;;;;;;;;;5094050;28;20035;-66
2021/07/31 04:54:39;;;;;;;8.40;3.05;;;;;;;;;;5092734;28;20386;-67
2021/07/31 04:57:05;;;;;;;7.60;3.40;;;;;;;;;;5094332;28;20035;-68
2021/07/31 04:59:31;;;;;;;5.32;2.90;;;;;;;;;;5091774;28;20483;-67
2021/07/31 05:01:57;;;;;;;7.75;3.05;;;;;;;;;;5093524;28;20050;-67
2021/07/31 05:04:23;;;;;;;5.72;3.53;;;;;;;;;;5093663;28;20044;-68
2021/07/31 05:06:49;;;;;;;7.72;3.38;;;;;;;;;;5093237;28;20091;-68
2021/07/31 05:09:15;;;;;;;6.53;2.85;;;;;;;;;;5092931;28;20364;-67
2021/07/31 05:11:41;;;;;;;5.13;2.92;;;;;;;;;;5093249;28;20024;-68
2021/07/31 05:14:08;;;;;;;4.88;2.85;;;;;;;;;;5093608;28;20099;-67
2021/07/31 05:16:34;;;;;;;6.18;3.50;;;;;;;;;;5092435;28;20024;-68
2021/07/31 05:19:00;;;;;;;6.85;3.05;;;;;;;;;;5093033;28;20070;-67
2021/07/31 05:21:26;;;;;;;7.70;3.47;;;;;;;;;;5092496;28;20024;-69
2021/07/31 05:23:52;;;;;;;5.47;2.90;;;;;;;;;;5092817;28;20028;-68
2021/07/31 05:26:18;;;;;;;7.78;2.95;;;;;;;;;;5106522;28;20047;-68
2021/07/31 05:28:44;;;;;;;4.97;3.30;;;;;;;;;;5113388;28;20024;-73
2021/07/31 05:31:18;;;;;;;7.55;3.67;;;;;;;;;;5114376;28;20058;-65
2021/07/31 05:33:44;;;;;;;6.35;3.63;;;;;;;;;;5113313;28;20474;-68
2021/07/31 05:36:10;;;;;;;7.57;3.80;;;;;;;;;;5112905;28;20393;-69
2021/07/31 05:38:36;;;;;;;6.32;3.67;;;;;;;;;;5112756;28;20020;-68
2021/07/31 05:41:02;;;;;;;10.27;4.15;;;;;;;;;;5112706;28;20069;-67
2021/07/31 05:43:29;;;;;;;7.05;3.88;;;;;;;;;;5113265;28;20028;-68
2021/07/31 05:45:55;;;;;;;7.70;4.50;;;;;;;;;;5112215;28;20023;-65
2021/07/31 05:48:21;;;;;;;7.93;4.20;;;;;;;;;;5113315;28;20030;-67
2021/07/31 05:50:48;;;;;;;7.25;4.60;;;;;;;;;;5112959;28;20024;-65
2021/07/31 05:53:14;;;;;;;8.02;4.28;;;;;;;;;;5112704;28;20030;-68
2021/07/31 05:55:40;;;;;;;9.73;5.25;;;;;;;;;;5112865;28;20027;-67
2021/07/31 05:58:06;;;;;;;6.68;4.55;;;;;;;;;;5112739;28;20030;-67
2021/07/31 06:00:32;;;;;;;8.25;5.10;;;;;;;;;;5113914;28;20070;-67
2021/07/31 06:02:58;;;;;;;7.70;4.47;;;;;;;;;;5114428;28;20031;-71
2021/07/31 06:05:26;;;;;;;7.35;4.90;;;;;;;;;;5113297;28;20028;-68
2021/07/31 06:07:52;;;;;;;9.23;5.78;;;;;;;;;;5113359;28;20049;-67
2021/07/31 06:10:18;;;;;;;7.97;4.35;;;;;;;;;;5113219;28;20538;-68
2021/07/31 06:12:45;;;;;;;8.35;4.38;;;;;;;;;;5117230;28;20028;-66
2021/07/31 06:15:11;;;;;;;11.35;4.78;;;;;;;;;;5117555;28;20055;-69
2021/07/31 06:17:37;;;;;;;6.47;3.97;;;;;;;;;;5118134;28;20016;-69
2021/07/31 06:20:04;;;;;;;7.50;3.90;;;;;;;;;;5117229;28;20481;-66
2021/07/31 06:22:33;;;;;;;7.97;4.15;;;;;;;;;;5116454;28;20416;-66
2021/07/31 06:24:59;;;;;;;5.30;3.63;;;;;;;;;;5116740;28;20027;-69
2021/07/31 06:27:25;;;;;;;6.45;3.67;;;;;;;;;;5117492;28;20030;-67
2021/07/31 06:29:51;;;;;;;9.70;5.32;;;;;;;;;;5116336;28;20026;-69
2021/07/31 06:32:17;;;;;;;7.45;3.60;;;;;;;;;;5098925;28;20074;-68
2021/07/31 06:34:43;;;;;;;7.03;3.83;;;;;;;;;;5096272;28;20039;-67
2021/07/31 06:37:09;;;;;;;8.55;3.53;;;;;;;;;;5094935;28;20028;-67
2021/07/31 06:39:35;;;;;;;8.60;3.90;;;;;;;;;;5099722;28;20020;-66
2021/07/31 06:42:01;;;;;;;6.07;3.80;;;;;;;;;;5117144;28;20550;-67
2021/07/31 06:44:28;;;;;;;6.75;3.33;;;;;;;;;;5115167;28;20262;-67
2021/07/31 06:46:54;;;;;;;6.35;3.75;;;;;;;;;;5116957;28;20101;-67
2021/07/31 06:49:20;;;;;;;6.43;4.32;;;;;;;;;;5118667;28;20075;-67
2021/07/31 06:51:51;;;;;;;6.30;4.38;;;;;;;;;;5123743;28;20038;-65
2021/07/31 06:54:18;;;;;;;6.00;3.83;;;;;;;;;;5115750;28;20027;-67
2021/07/31 06:56:44;;;;;;;6.43;4.07;;;;;;;;;;5116367;28;20031;-70
2021/07/31 06:59:11;;;;;;;8.32;4.72;;;;;;;;;;5116424;28;20023;-66
2021/07/31 07:01:37;;;;;;;6.47;3.95;;;;;;;;;;5116107;28;20085;-67
2021/07/31 07:04:03;;;;;;;8.35;4.60;;;;;;;;;;5115813;28;20026;-68
2021/07/31 07:06:32;;;;;;;10.38;4.63;;;;;;;;;;5115617;28;20077;-67
2021/07/31 07:08:58;;;;;;;9.95;4.35;;;;;;;;;;5115949;28;20038;-67
2021/07/31 07:11:27;;;;;;;12.13;4.95;;;;;;;;;;5115676;28;20019;-67
2021/07/31 07:13:53;;;;;;;9.77;4.47;;;;;;;;;;5115939;28;20023;-67
2021/07/31 07:16:19;;;;;;;9.32;5.13;;;;;;;;;;5114837;28;20030;-67
2021/07/31 07:18:45;;;;;;;9.63;5.28;;;;;;;;;;5102738;28;20036;-68
2021/07/31 07:21:11;;;;;;;9.93;4.35;;;;;;;;;;5103575;28;20541;-67
2021/07/31 07:23:38;;;;;;;11.65;4.95;;;;;;;;;;5115117;28;20110;-67
2021/07/31 07:26:10;;;;;;;10.13;3.78;;;;;;;;;;5115230;28;20100;-68
2021/07/31 07:28:37;;;;;;;10.13;4.82;;;;;;;;;;5116144;28;20020;-67
2021/07/31 07:31:06;;;;;;;11.30;5.38;;;;;;;;;;5114976;28;20012;-68
2021/07/31 07:33:33;;;;;;;8.95;5.10;;;;;;;;;;5115529;28;20023;-68
2021/07/31 07:35:59;;;;;;;11.00;5.50;;;;;;;;;;5112843;28;20024;-68
2021/07/31 07:38:25;;;;;;;10.27;5.15;;;;;;;;;;5108350;28;21795;-70
2021/07/31 07:40:51;;;;;;;10.07;5.85;;;;;;;;;;5117132;28;20099;-66
2021/07/31 07:43:17;;;;;;;8.60;5.20;;;;;;;;;;5115661;28;20030;-67
2021/07/31 07:45:46;;;;;;;9.77;5.13;;;;;;;;;;5115434;28;20019;-66
2021/07/31 07:48:12;;;;;;;7.97;4.97;;;;;;;;;;5114147;28;20030;-69
2021/07/31 07:50:38;;;;;;;8.27;5.00;;;;;;;;;;5101957;28;20016;-69
2021/07/31 07:53:04;;;;;;;9.15;4.97;;;;;;;;;;5115439;28;20027;-68
2021/07/31 07:55:30;;;;;;;8.13;4.78;;;;;;;;;;5114693;28;20078;-68
2021/07/31 07:57:56;;;;;;;7.53;4.90;;;;;;;;;;5114515;28;20024;-67
2021/07/31 08:00:23;;;;;;;9.98;5.15;;;;;;;;;;5114451;28;20047;-68
2021/07/31 08:02:49;;;;;;;12.27;6.25;;;;;;;;;;5115341;28;20037;-69
2021/07/31 08:05:15;;;;;;;8.77;5.93;;;;;;;;;;5114694;28;20084;-70
2021/07/31 08:07:43;;;;;;;11.82;6.20;;;;;;;;;;5114701;28;20095;-68
2021/07/31 08:10:10;;;;;;;10.68;6.10;;;;;;;;;;5115517;28;20051;-67
2021/07/31 08:12:36;;;;;;;13.25;7.13;;;;;;;;;;5114615;28;20032;-69
2021/07/31 08:15:02;;;;;;;10.82;5.90;;;;;;;;;;5114120;28;20077;-69
2021/07/31 08:17:28;;;;;;;9.15;5.50;;;;;;;;;;5112873;28;20036;-69
2021/07/31 08:19:54;;;;;;;8.57;5.82;;;;;;;;;;5093983;28;20120;-70
2021/07/31 08:22:20;;;;;;;7.55;5.70;;;;;;;;;;5093768;28;20078;-70
2021/07/31 08:24:47;;;;;;;13.05;6.30;;;;;;;;;;5093650;28;20057;-70
2021/07/31 08:27:13;;;;;;;10.10;6.25;;;;;;;;;;5097884;28;20075;-69
2021/07/31 08:29:39;;;;;;;9.52;6.38;;;;;;;;;;5114351;28;20023;-69
2021/07/31 08:32:05;;;;;;;10.07;5.80;;;;;;;;;;5113864;28;20034;-69
2021/07/31 08:34:31;;;;;;;10.93;6.07;;;;;;;;;;5113635;28;20027;-69
2021/07/31 08:37:04;;;;;;;9.18;5.78;;;;;;;;;;5113865;28;20023;-69
2021/07/31 08:39:30;;;;;;;7.97;4.90;;;;;;;;;;5113641;28;20027;-68
2021/07/31 08:41:56;;;;;;;8.30;4.80;;;;;;;;;;5113644;28;20034;-68
2021/07/31 08:44:22;;;;;;;7.30;4.75;;;;;;;;;;5113931;28;20487;-70
2021/07/31 08:46:50;;;;;;;7.85;4.80;;;;;;;;;;5113332;28;20032;-70
2021/07/31 08:49:19;;;;;;;6.97;4.53;;;;;;;;;;5112951;28;20035;-68
2021/07/31 08:51:46;;;;;;;9.90;5.00;;;;;;;;;;5113469;28;20080;-68
2021/07/31 08:54:12;;;;;;;7.30;5.78;;;;;;;;;;5113383;28;20015;-69
2021/07/31 08:56:42;;;;;;;8.57;5.30;;;;;;;;;;5113385;28;20084;-69
2021/07/31 08:59:09;;;;;;;7.68;5.32;;;;;;;;;;5113781;28;20500;-68
2021/07/31 09:01:35;;;;;;;5.10;4.60;;;;;;;;;;5113072;28;20059;-68
2021/07/31 09:04:12;;;;;;;5.25;4.68;;;;;;;;;;5113645;28;20135;-68
2021/07/31 09:06:38;;;;;;;5.72;4.25;;;;;;;;;;5101326;28;20493;-68
2021/07/31 09:09:05;;;;;;;5.65;4.25;;;;;;;;;;5100564;28;20517;-68
2021/07/31 09:11:32;;;;;;;4.72;3.92;;;;;;;;;;5111780;28;20035;-67
2021/07/31 09:14:15;;;;;;;5.20;4.47;;;;;;;;;;5113384;28;20092;-67
2021/07/31 09:16:42;;;;;;;5.93;4.15;;;;;;;;;;5092831;28;20020;-68
2021/07/31 09:19:09;;;;;;;3.97;3.40;;;;;;;;;;5091334;28;20500;-68
2021/07/31 09:21:35;;;;;;;6.18;4.05;;;;;;;;;;5092784;28;20031;-68
2021/07/31 09:24:01;;;;;;;5.32;3.35;;;;;;;;;;5091950;28;20028;-69
2021/07/31 09:26:38;;;;;;;4.60;3.20;;;;;;;;;;5093415;28;20124;-68
2021/07/31 09:29:11;;;;;;;4.65;3.33;;;;;;;;;;5113281;28;20026;-67
2021/07/31 09:31:39;;;;;;;6.32;3.05;;;;;;;;;;5113049;28;20115;-68
2021/07/31 09:34:06;;;;;;;5.88;2.95;;;;;;;;;;5112652;28;20028;-69
2021/07/31 09:36:40;;;;;;;4.60;3.10;;;;;;;;;;5113064;28;20474;-70
2021/07/31 09:39:07;;;;;;;4.03;2.85;;;;;;;;;;5113071;28;20027;-70
2021/07/31 09:41:36;;;;;;;5.28;3.28;;;;;;;;;;5112193;28;20055;-68
2021/07/31 09:44:08;;;;;;;6.65;2.95;;;;;;;;;;5112630;28;20015;-68
2021/07/31 09:46:43;;;;;;;3.03;2.72;;;;;;;;;;5115220;28;20618;-69
2021/07/31 09:49:19;;;;;;;4.35;2.67;;;;;;;;;;5118098;28;20020;-66
2021/07/31 09:51:46;;;;;;;3.55;2.72;;;;;;;;;;5117134;28;20113;-69
2021/07/31 09:54:13;;;;;;;3.15;2.60;;;;;;;;;;5117228;28;20026;-69
2021/07/31 09:56:40;;;;;;;3.75;3.45;;;;;;;;;;5117662;28;20030;-69
2021/07/31 09:59:07;;;;;;;4.90;4.10;;;;;;;;;;5112611;28;20031;-69
2021/07/31 10:01:37;;;;;;;6.53;3.95;;;;;;;;;;5096418;28;20044;-71
2021/07/31 10:04:04;;;;;;;4.55;3.30;;;;;;;;;;5098624;28;20024;-70
2021/07/31 10:06:31;;;;;;;3.88;3.10;;;;;;;;;;5097576;28;20028;-68
2021/07/31 10:08:59;;;;;;;4.63;2.97;;;;;;;;;;5097039;28;20402;-66
2021/07/31 10:11:26;;;;;;;3.72;2.50;;;;;;;;;;5097027;28;20052;-69
2021/07/31 10:13:53;;;;;;;3.50;2.55;;;;;;;;;;5097365;28;20434;-70
2021/07/31 10:16:19;;;;;;;14.20;7.18;;;;;;;;;;5097772;28;20075;-67
2021/07/31 10:18:56;;;;;;;6.15;2.60;;;;;;;;;;5097314;28;20107;-69
2021/07/31 10:21:22;;;;;;;13.13;8.82;;;;;;;;;;5097435;28;20063;-70
2021/07/31 10:23:57;;;;;;;5.75;3.80;;;;;;;;;;5097227;28;20599;-70
2021/07/31 10:26:23;;;;;;;4.80;3.25;;;;;;;;;;5095937;28;20467;-68
2021/07/31 10:28:49;;;;;;;4.95;3.45;;;;;;;;;;5096046;28;20459;-68
2021/07/31 10:31:35;;;;;;;3.60;2.85;;;;;;;;;;5095932;28;20020;-67
2021/07/31 10:34:01;;;;;;;7.13;3.80;;;;;;;;;;5095896;28;20073;-70
2021/07/31 10:36:31;;;;;;;4.22;3.00;;;;;;;;;;5106381;28;20024;-68
2021/07/31 10:38:58;;;;;;;4.57;2.80;;;;;;;;;;5116502;28;20543;-67
2021/07/31 10:41:42;;;;;;;4.22;3.10;;;;;;;;;;5116003;28;20024;-67
2021/07/31 10:44:09;;;;;;;5.00;3.23;;;;;;;;;;5115792;28;20020;-67
2021/07/31 10:46:35;;;;;;;5.93;3.20;;;;;;;;;;5115916;28;20020;-67
2021/07/31 10:49:21;;;;;;;3.95;2.92;;;;;;;;;;5116264;28;20026;-66
2021/07/31 10:51:47;;;;;;;3.75;3.00;;;;;;;;;;5116501;28;20035;-66
2021/07/31 10:54:13;;;;;;;3.10;2.45;;;;;;;;;;5115998;28;20020;-67
2021/07/31 10:56:55;;;;;;;5.05;2.97;;;;;;;;;;5108117;28;20031;-68
2021/07/31 10:59:21;;;;;;;5.03;2.97;;;;;;;;;;5111450;28;20028;-67
2021/07/31 11:01:48;;;;;;;3.30;2.78;;;;;;;;;;5115614;28;20382;-67
2021/07/31 11:04:52;;;;;;;5.18;2.97;;;;;;;;;;5115471;28;20049;-68
2021/07/31 11:07:20;;;;;;;2.67;2.47;;;;;;;;;;5032463;28;20036;-68
2021/07/31 11:10:06;;;;;;;3.85;2.80;;;;;;;;;;5032541;28;20523;-68
2021/07/31 11:12:44;;;;;;;3.63;2.72;;;;;;;;;;5084932;28;20470;-67
2021/07/31 11:15:16;;;;;;;3.63;3.05;;;;;;;;;;5117349;28;20049;-70
2021/07/31 11:17:42;;;;;;;3.67;3.05;;;;;;;;;;5117080;28;20011;-69
2021/07/31 11:20:25;;;;;;;5.32;3.08;;;;;;;;;;5116681;28;20076;-69
2021/07/31 11:22:53;;;;;;;4.93;2.90;;;;;;;;;;5115575;28;20023;-70
2021/07/31 11:25:20;;;;;;;4.40;3.10;;;;;;;;;;5115887;28;20042;-68
2021/07/31 11:27:53;;;;;;;3.90;3.38;;;;;;;;;;5115457;28;20016;-67
2021/07/31 11:30:19;;;;;;;2.83;2.47;;;;;;;;;;5116060;28;20020;-68
2021/07/31 11:32:46;;;;;;;3.95;2.75;;;;;;;;;;5116162;28;20095;-67
2021/07/31 11:35:27;;;;;;;4.60;2.90;;;;;;;;;;5116716;28;20477;-68
2021/07/31 11:37:53;;;;;;;4.30;2.88;;;;;;;;;;5095920;28;20495;-68
2021/07/31 11:40:19;;;;;;;3.92;2.50;;;;;;;;;;5096159;28;20444;-67
2021/07/31 11:43:05;;;;;;;4.80;2.65;;;;;;;;;;5117105;28;20030;-70
2021/07/31 11:45:48;;;;;;;3.90;2.22;;;;;;;;;;5127392;28;20591;-68
2021/07/31 11:48:15;;;;;;;3.40;2.80;;;;;;;;;;5114935;28;20035;-68
2021/07/31 11:51:00;;;;;;;4.38;2.60;;;;;;;;;;5114762;28;20149;-68
2021/07/31 11:53:26;;;;;;;4.43;2.38;;;;;;;;;;5114013;28;20057;-68
2021/07/31 11:55:52;;;;;;;4.45;2.90;;;;;;;;;;5112806;28;20031;-68
2021/07/31 11:58:18;;;;;;;3.72;3.33;;;;;;;;;;5114387;28;20024;-70
2021/07/31 12:00:44;;;;;;;4.38;3.13;;;;;;;;;;5114015;28;20165;-70
2021/07/31 12:03:29;;;;;;;3.50;3.00;;;;;;;;;;5114489;28;20444;-70
2021/07/31 12:05:56;;;;;;;3.30;2.97;;;;;;;;;;5112487;28;20023;-67
2021/07/31 12:08:22;;;;;;;3.53;3.20;;;;;;;;;;5113828;28;20098;-69
2021/07/31 12:10:48;;;;;;;5.20;3.20;;;;;;;;;;5114399;28;20020;-68
2021/07/31 12:13:20;;;;;;;3.78;3.25;;;;;;;;;;5112616;28;20081;-69
2021/07/31 12:15:46;;;;;;;4.45;2.78;;;;;;;;;;5112888;28;20024;-69
2021/07/31 12:18:12;;;;;;;3.67;2.83;;;;;;;;;;5114959;28;20598;-69
2021/07/31 12:20:41;;;;;;;2.80;2.50;;;;;;;;;;5113124;28;20063;-69
2021/07/31 12:23:08;;;;;;;3.35;2.70;;;;;;;;;;5113070;28;20026;-69
2021/07/31 12:25:35;;;;;;;3.00;2.55;;;;;;;;;;5112127;28;20077;-70
2021/07/31 12:28:09;;;;;;;4.10;2.78;;;;;;;;;;5111874;28;20036;-70
2021/07/31 12:30:35;;;;;;;4.20;2.92;;;;;;;;;;5111928;28;20024;-69
2021/07/31 12:33:02;;;;;;;4.85;3.05;;;;;;;;;;5112028;28;20024;-70
2021/07/31 12:35:31;;;;;;;3.92;2.90;;;;;;;;;;5112084;28;20020;-70
2021/07/31 12:37:57;;;;;;;3.22;2.92;;;;;;;;;;5113002;28;20519;-70
2021/07/31 12:40:23;;;;;;;3.33;2.70;;;;;;;;;;5113323;28;20439;-70
2021/07/31 12:42:50;;;;;;;3.40;3.10;;;;;;;;;;5115909;28;20466;-70
2021/07/31 12:45:16;;;;;;;4.50;3.13;;;;;;;;;;5117530;28;20015;-70
2021/07/31 12:47:42;;;;;;;3.88;2.83;;;;;;;;;;5113542;28;20020;-69
2021/07/31 12:50:09;;;;;;;3.88;3.00;;;;;;;;;;5112761;28;20032;-71
2021/07/31 12:52:35;;;;;;;3.63;2.90;;;;;;;;;;5112526;28;20031;-71
2021/07/31 12:55:01;;;;;;;3.10;2.80;;;;;;;;;;5111562;28;20035;-70
2021/07/31 12:57:27;;;;;;;4.32;2.85;;;;;;;;;;5113057;28;20054;-70
2021/07/31 12:59:53;;;;;;;4.72;2.70;;;;;;;;;;5112947;28;20061;-70
2021/07/31 13:02:19;;;;;;;3.25;2.60;;;;;;;;;;5111854;28;20459;-70
2021/07/31 13:04:45;;;;;;;4.00;2.42;;;;;;;;;;5098617;28;20024;-70
2021/07/31 13:07:11;;;;;;;2.97;2.30;;;;;;;;;;5092700;28;20020;-69
2021/07/31 13:09:38;;;;;;;2.30;2.03;;;;;;;;;;5092773;28;20020;-68
2021/07/31 13:12:05;;;;;;;2.60;2.10;;;;;;;;;;5092668;28;20029;-69
2021/07/31 13:14:31;;;;;;;3.30;2.60;;;;;;;;;;5105907;28;20046;-67
2021/07/31 13:16:57;;;;;;;2.83;2.25;;;;;;;;;;5113035;28;20047;-67
2021/07/31 13:19:23;;;;;;;2.90;2.35;;;;;;;;;;5112603;28;20015;-67
2021/07/31 13:21:49;;;;;;;3.17;2.40;;;;;;;;;;5112153;28;20038;-67
2021/07/31 13:24:15;;;;;;;3.55;2.50;;;;;;;;;;5112425;28;20030;-69
2021/07/31 13:26:41;;;;;;;3.10;2.80;;;;;;;;;;5112804;28;20022;-67
2021/07/31 13:29:07;;;;;;;2.95;2.40;;;;;;;;;;5112388;28;20504;-69
2021/07/31 13:31:35;;;;;;;3.75;2.50;;;;;;;;;;5112757;28;20505;-68
2021/07/31 13:34:01;;;;;;;4.55;3.53;;;;;;;;;;5112405;28;20481;-68
2021/07/31 13:36:28;;;;;;;5.22;2.80;;;;;;;;;;5107655;28;20032;-68
2021/07/31 13:38:59;;;;;;;4.57;3.13;;;;;;;;;;5107537;28;20027;-68
2021/07/31 13:41:25;;;;;;;3.55;3.05;;;;;;;;;;5112143;28;20031;-68
2021/07/31 13:43:51;;;;;;;4.15;3.75;;;;;;;;;;5112269;28;20066;-69
2021/07/31 13:46:17;;;;;;;3.25;2.78;;;;;;;;;;5112423;28;20031;-68
2021/07/31 13:48:43;;;;;;;3.50;3.05;;;;;;;;;;5112101;28;20064;-68
2021/07/31 13:51:09;;;;;;;3.40;3.00;;;;;;;;;;5112644;28;20106;-68
2021/07/31 13:53:35;;;;;;;5.40;2.90;;;;;;;;;;5112693;28;20024;-68
2021/07/31 13:56:02;;;;;;;2.90;2.45;;;;;;;;;;5107986;28;20471;-68
2021/07/31 13:58:29;;;;;;;2.85;2.53;;;;;;;;;;5111936;28;20039;-68
2021/07/31 14:00:55;;;;;;;3.60;3.08;;;;;;;;;;5112498;28;20459;-70
2021/07/31 14:03:21;;;;;;;3.20;2.40;;;;;;;;;;5111929;28;20027;-68
2021/07/31 14:05:47;;;;;;;2.80;2.42;;;;;;;;;;5112599;28;20096;-69
2021/07/31 14:08:14;;;;;;;2.10;1.90;;;;;;;;;;5110895;28;20020;-68
2021/07/31 14:10:40;;;;;;;1.80;1.70;;;;;;;;;;5112054;28;20095;-70
2021/07/31 14:13:06;;;;;;;2.40;2.03;;;;;;;;;;5112071;28;20028;-70
2021/07/31 14:15:32;;;;;;;2.25;2.05;;;;;;;;;;5112390;28;20073;-68
2021/07/31 14:17:58;;;;;;;2.35;1.95;;;;;;;;;;5111996;28;20031;-69
2021/07/31 14:20:24;;;;;;;2.22;1.90;;;;;;;;;;5112707;28;20023;-68
2021/07/31 14:22:50;;;;;;;2.40;2.00;;;;;;;;;;5111188;28;20053;-68
2021/07/31 14:25:17;;;;;;;2.28;1.90;;;;;;;;;;5112270;28;20016;-68
2021/07/31 14:27:43;;;;;;;3.85;2.00;;;;;;;;;;5111755;28;20470;-68
2021/07/31 14:30:09;;;;;;;2.97;1.85;;;;;;;;;;5112323;28;20031;-67
2021/07/31 14:32:35;;;;;;;2.80;1.83;;;;;;;;;;5114510;28;20027;-67
2021/07/31 14:35:02;;;;;;;1.77;1.67;;;;;;;;;;5115934;28;20149;-69
2021/07/31 14:37:28;;;;;;;2.58;1.80;;;;;;;;;;5108474;28;20038;-69
2021/07/31 14:39:54;;;;;;;3.72;2.08;;;;;;;;;;5115906;28;20027;-69
2021/07/31 14:42:20;;;;;;;2.70;2.20;;;;;;;;;;5109184;28;20099;-70
2021/07/31 14:44:46;;;;;;;3.28;2.10;;;;;;;;;;5103936;28;20031;-69